Time;durP1;ratioP1;P1;durP2;ratioP2;P2;SDS_P1;SDS_P2;PMS_P1;PMS_P2;Temp;Humidity;BMP_temperature;BMP_pressure;BME280_temperature;BME280_humidity;BME280_pressure;Samples;Min_cycle;Max_cycle;Signal;HPM_P1;HPM_P2
2024/03/17 00:01:49;;;;;;;19.25;12.00;;;;;;;8.39;100.00;100436.63;5088206;28;20036;-79
2024/03/17 00:04:15;;;;;;;20.90;11.88;;;;;;;7.94;100.00;100405.06;5069545;28;20024;-79
2024/03/17 00:06:40;;;;;;;20.42;11.68;;;;;;;7.96;100.00;100400.38;5087658;28;20016;-79
2024/03/17 00:09:09;;;;;;;22.17;12.70;;;;;;;8.48;100.00;100440.81;5087666;28;20156;-79
2024/03/17 00:11:35;;;;;;;22.67;12.48;;;;;;;8.25;100.00;100419.78;5088006;28;20111;-79
2024/03/17 00:14:01;;;;;;;20.60;12.45;;;;;;;8.10;100.00;100442.97;5088144;28;20051;-79
2024/03/17 00:16:27;;;;;;;23.45;12.55;;;;;;;7.98;100.00;100443.50;5087621;28;20751;-79
2024/03/17 00:18:53;;;;;;;21.30;12.40;;;;;;;8.24;100.00;100440.22;5069378;28;20028;-79
2024/03/17 00:21:19;;;;;;;20.85;12.73;;;;;;;8.14;100.00;100417.66;5087968;28;20603;-79
2024/03/17 00:23:49;;;;;;;20.48;12.40;;;;;;;7.80;100.00;100435.16;5069469;28;20078;-79
2024/03/17 00:26:14;;;;;;;22.92;12.38;;;;;;;7.77;100.00;100424.94;5087161;28;20751;-79
2024/03/17 00:28:40;;;;;;;20.65;11.70;;;;;;;7.79;100.00;100422.94;5087493;28;20047;-80
2024/03/17 00:31:05;;;;;;;20.67;12.38;;;;;;;7.85;100.00;100435.44;5087299;28;20027;-79
2024/03/17 00:33:31;;;;;;;22.27;12.90;;;;;;;7.72;100.00;100424.69;5087678;28;20032;-79
2024/03/17 00:35:56;;;;;;;20.45;11.77;;;;;;;7.69;100.00;100417.13;5087135;28;20038;-79
2024/03/17 00:38:21;;;;;;;20.95;11.85;;;;;;;7.58;100.00;100443.16;5087501;28;20398;-78
2024/03/17 00:40:48;;;;;;;21.17;12.70;;;;;;;7.38;100.00;100442.16;5069223;28;20032;-78
2024/03/17 00:43:14;;;;;;;20.75;12.15;;;;;;;7.36;100.00;100421.09;5087306;28;20035;-79
2024/03/17 00:45:39;;;;;;;23.55;12.57;;;;;;;7.56;100.00;100437.22;5068787;28;20024;-80
2024/03/17 00:48:06;;;;;;;24.40;13.63;;;;;;;7.38;100.00;100412.97;5086835;28;20028;-79
2024/03/17 00:50:32;;;;;;;26.60;16.50;;;;;;;7.50;100.00;100422.06;5087109;28;20067;-79
2024/03/17 00:52:57;;;;;;;38.55;22.13;;;;;;;7.49;100.00;100451.44;5087153;28;20131;-79
2024/03/17 00:55:22;;;;;;;25.35;14.70;;;;;;;7.49;100.00;100435.50;5086129;28;20023;-79
2024/03/17 00:57:48;;;;;;;23.30;11.95;;;;;;;7.70;100.00;100443.44;5086068;28;20027;-80
2024/03/17 01:00:15;;;;;;;23.40;13.02;;;;;;;7.32;100.00;100429.63;5086853;28;20072;-79
2024/03/17 01:02:40;;;;;;;22.08;12.68;;;;;;;7.38;100.00;100452.75;5086580;28;20058;-80
2024/03/17 01:05:06;;;;;;;37.17;21.05;;;;;;;7.28;100.00;100428.38;5076667;28;20096;-80
2024/03/17 01:07:32;;;;;;;48.97;26.80;;;;;;;7.41;100.00;100439.09;5086428;28;20405;-80
2024/03/17 01:09:57;;;;;;;32.90;18.33;;;;;;;7.28;100.00;100433.69;5086332;28;20135;-80
2024/03/17 01:12:23;;;;;;;27.98;13.85;;;;;;;7.18;100.00;100440.09;5086623;28;20028;-80
2024/03/17 01:14:48;;;;;;;22.73;12.80;;;;;;;7.08;100.00;100428.97;5086274;28;20040;-80
2024/03/17 01:17:13;;;;;;;23.48;14.02;;;;;;;7.21;100.00;100444.19;5086192;28;20580;-80
2024/03/17 01:19:39;;;;;;;21.92;13.10;;;;;;;6.96;100.00;100451.66;5086287;28;20409;-80
2024/03/17 01:22:04;;;;;;;26.55;14.90;;;;;;;6.76;100.00;100409.84;5086282;28;20053;-80
2024/03/17 01:24:31;;;;;;;21.90;13.30;;;;;;;6.73;100.00;100446.50;5086602;28;20076;-80
2024/03/17 01:26:58;;;;;;;21.10;12.32;;;;;;;6.84;100.00;100446.84;5085878;28;20092;-80
2024/03/17 01:29:24;;;;;;;23.70;13.53;;;;;;;6.48;100.00;100400.88;5086466;28;20076;-81
2024/03/17 01:31:50;;;;;;;19.48;12.13;;;;;;;6.42;100.00;100407.78;5069130;28;20276;-81
2024/03/17 01:34:16;;;;;;;22.65;12.55;;;;;;;6.12;100.00;100391.03;5068960;28;20709;-80
2024/03/17 01:36:41;;;;;;;25.25;13.32;;;;;;;6.35;100.00;100417.44;5087138;28;20698;-80
2024/03/17 01:39:07;;;;;;;25.33;13.18;;;;;;;6.35;100.00;100423.56;5086896;28;20024;-79
2024/03/17 01:41:32;;;;;;;24.20;13.77;;;;;;;6.32;100.00;100415.97;5068882;28;20086;-81
2024/03/17 01:43:58;;;;;;;23.42;13.85;;;;;;;6.54;100.00;100456.66;5069145;28;20024;-81
2024/03/17 01:46:24;;;;;;;23.98;13.60;;;;;;;6.39;100.00;100403.63;5087137;28;20059;-80
2024/03/17 01:48:50;;;;;;;22.45;13.02;;;;;;;6.82;100.00;100455.97;5086849;28;20047;-80
2024/03/17 01:51:16;;;;;;;27.77;14.95;;;;;;;6.96;100.00;100438.41;5087162;28;20051;-80
2024/03/17 01:53:42;;;;;;;26.10;13.93;;;;;;;6.82;100.00;100432.97;5087262;28;20039;-80
2024/03/17 01:56:11;;;;;;;22.10;13.02;;;;;;;6.93;100.00;100452.06;5087525;28;20028;-79
2024/03/17 01:58:36;;;;;;;;;;;;;;;7.14;100.00;100438.81;5075930;28;20398;-80
2024/03/17 02:01:04;;;;;;;24.67;14.82;;;;;;;7.10;100.00;100453.47;5105984;28;19937;-80
2024/03/17 02:03:29;;;;;;;23.83;14.47;;;;;;;6.76;100.00;100446.09;5107749;28;20103;-80
2024/03/17 02:05:55;;;;;;;22.05;13.00;;;;;;;6.54;100.00;100432.81;5106510;28;20051;-81
2024/03/17 02:08:22;;;;;;;24.95;14.60;;;;;;;6.90;100.00;100431.19;5106409;28;20039;-80
2024/03/17 02:10:55;;;;;;;24.25;14.30;;;;;;;7.05;100.00;100434.66;5106991;28;20039;-80
2024/03/17 02:13:21;;;;;;;26.52;14.82;;;;;;;6.77;100.00;100390.28;5087181;28;20032;-80
2024/03/17 02:15:47;;;;;;;23.92;13.23;;;;;;;6.72;100.00;100436.88;5087870;28;20053;-80
2024/03/17 02:18:13;;;;;;;26.40;14.23;;;;;;;6.72;100.00;100413.03;5084723;28;20102;-80
2024/03/17 02:21:01;;;;;;;25.85;14.38;;;;;;;6.54;100.00;100421.34;5097125;28;20025;-79
2024/03/17 02:23:26;;;;;;;25.93;14.20;;;;;;;6.35;100.00;100412.13;5097862;28;20034;-80
2024/03/17 02:25:53;;;;;;;25.40;14.60;;;;;;;6.23;100.00;100409.13;5097595;28;20266;-79
2024/03/17 02:28:18;;;;;;;21.95;13.73;;;;;;;6.61;100.00;100441.66;5075184;28;20054;-80
2024/03/17 02:30:44;;;;;;;24.60;14.45;;;;;;;6.83;100.00;100407.28;5097010;28;20024;-79
2024/03/17 02:33:10;;;;;;;26.50;16.10;;;;;;;6.89;100.00;100426.91;5096680;28;20035;-79
2024/03/17 02:35:35;;;;;;;26.05;14.75;;;;;;;6.76;100.00;100425.75;5096491;28;20035;-80
2024/03/17 02:38:02;;;;;;;27.42;16.08;;;;;;;6.88;100.00;100401.41;5077229;28;20154;-80
2024/03/17 02:40:27;;;;;;;25.88;14.00;;;;;;;6.88;100.00;100412.00;5094115;28;20047;-79
2024/03/17 02:42:54;;;;;;;25.00;14.68;;;;;;;6.36;100.00;100419.91;5092877;28;20024;-79
2024/03/17 02:45:21;;;;;;;24.65;14.50;;;;;;;6.24;100.00;100458.44;5091976;28;20017;-80
2024/03/17 02:47:46;;;;;;;26.55;14.90;;;;;;;6.20;100.00;100441.28;5091377;28;20031;-80
2024/03/17 02:50:12;;;;;;;26.30;14.80;;;;;;;6.50;100.00;100447.41;5090986;28;20085;-79
2024/03/17 02:52:37;;;;;;;29.27;16.58;;;;;;;6.42;100.00;100450.16;5090951;28;20107;-81
2024/03/17 02:55:03;;;;;;;27.58;16.77;;;;;;;6.12;100.00;100410.41;5090612;28;20023;-79
2024/03/17 02:57:32;;;;;;;33.92;18.08;;;;;;;6.56;100.00;100429.94;5071386;28;20436;-79
2024/03/17 02:59:57;;;;;;;29.38;17.83;;;;;;;7.04;100.00;100454.22;5071820;28;20028;-80
2024/03/17 03:02:23;;;;;;;25.83;16.50;;;;;;;7.10;100.00;100437.56;5085493;28;20085;-80
2024/03/17 03:04:48;;;;;;;27.63;16.65;;;;;;;6.92;100.00;100463.66;5089566;28;20474;-80
2024/03/17 03:07:14;;;;;;;29.48;16.58;;;;;;;7.02;100.00;100450.94;5089444;28;20040;-81
2024/03/17 03:09:39;;;;;;;30.30;16.83;;;;;;;6.71;100.00;100449.31;5070746;28;20028;-79
2024/03/17 03:12:07;;;;;;;29.45;17.67;;;;;;;6.73;100.00;100463.22;5088979;28;20036;-80
2024/03/17 03:14:33;;;;;;;27.15;16.02;;;;;;;6.55;100.00;100454.81;5083928;28;20512;-80
2024/03/17 03:16:58;;;;;;;29.00;17.27;;;;;;;6.05;100.00;100398.91;5087701;28;20061;-80
2024/03/17 03:19:24;;;;;;;29.65;17.15;;;;;;;6.44;100.00;100443.66;5088523;28;20031;-79
2024/03/17 03:21:50;;;;;;;33.15;17.52;;;;;;;6.52;100.00;100439.25;5089102;28;20028;-80
2024/03/17 03:24:15;;;;;;;28.30;15.27;;;;;;;6.54;100.00;100454.00;5088916;28;20420;-80
2024/03/17 03:26:41;;;;;;;26.65;15.35;;;;;;;6.31;100.00;100437.34;5088534;28;20086;-79
2024/03/17 03:29:06;;;;;;;30.15;17.30;;;;;;;6.35;100.00;100436.78;5088361;28;20564;-80
2024/03/17 03:31:32;;;;;;;29.40;17.13;;;;;;;6.53;100.00;100462.13;5062712;28;20036;-80
2024/03/17 03:34:01;;;;;;;41.45;30.17;;;;;;;6.34;100.00;100448.41;5088597;28;20032;-80
2024/03/17 03:36:27;;;;;;;30.48;18.35;;;;;;;6.54;100.00;100454.00;5088601;28;20028;-80
2024/03/17 03:38:53;;;;;;;33.70;20.00;;;;;;;6.62;100.00;100440.66;5070525;28;20028;-80
2024/03/17 03:41:19;;;;;;;93.93;55.00;;;;;;;6.70;100.00;100453.00;5088554;28;20106;-80
2024/03/17 03:43:46;;;;;;;59.05;32.72;;;;;;;6.75;100.00;100465.69;5088557;28;20045;-80
2024/03/17 03:46:12;;;;;;;50.65;28.55;;;;;;;6.35;100.00;100438.63;5088168;28;20432;-80
2024/03/17 03:48:37;;;;;;;59.70;33.53;;;;;;;6.55;100.00;100449.50;5069934;28;20032;-80
2024/03/17 03:51:07;;;;;;;87.25;46.72;;;;;;;7.09;100.00;100478.38;5088240;28;20027;-80
2024/03/17 03:53:33;;;;;;;40.40;23.63;;;;;;;7.05;100.00;100447.91;5070259;28;20489;-79
2024/03/17 03:56:01;;;;;;;33.75;19.25;;;;;;;7.31;100.00;100462.47;5088056;28;20055;-80
2024/03/17 03:58:30;;;;;;;28.92;17.70;;;;;;;7.30;100.00;100468.81;5070102;28;20612;-80
2024/03/17 04:00:56;;;;;;;28.80;16.63;;;;;;;7.34;100.00;100462.09;5087492;28;20032;-80
2024/03/17 04:03:22;;;;;;;30.27;16.85;;;;;;;7.58;100.00;100468.88;5084025;28;20495;-80
2024/03/17 04:05:47;;;;;;;29.83;18.27;;;;;;;7.23;100.00;100463.41;5069800;28;20440;-80
2024/03/17 04:08:13;;;;;;;36.10;19.58;;;;;;;7.53;100.00;100473.94;5087343;28;20472;-80
2024/03/17 04:10:38;;;;;;;35.72;21.15;;;;;;;7.15;100.00;100458.19;5087751;28;20023;-80
2024/03/17 04:13:04;;;;;;;39.95;22.30;;;;;;;6.98;100.00;100460.25;5087704;28;20068;-81
2024/03/17 04:15:29;;;;;;;30.75;19.55;;;;;;;7.17;100.00;100480.91;5069631;28;20237;-81
2024/03/17 04:17:54;;;;;;;30.42;18.58;;;;;;;7.39;100.00;100473.78;5087314;28;20107;-80
2024/03/17 04:20:20;;;;;;;30.88;18.20;;;;;;;6.75;100.00;100434.69;5087605;28;20032;-80
2024/03/17 04:22:48;;;;;;;32.83;19.85;;;;;;;6.87;100.00;100484.59;5087134;28;20024;-80
2024/03/17 04:25:14;;;;;;;37.35;22.65;;;;;;;6.84;100.00;100476.00;5087459;28;20031;-80
2024/03/17 04:27:40;;;;;;;39.20;23.40;;;;;;;7.01;100.00;100473.97;5069349;28;20460;-79
2024/03/17 04:30:06;;;;;;;36.65;22.75;;;;;;;7.09;100.00;100483.66;5068773;28;20036;-81
2024/03/17 04:32:32;;;;;;;35.55;22.65;;;;;;;6.84;100.00;100481.31;5087650;28;20036;-80
2024/03/17 04:34:58;;;;;;;32.85;18.15;;;;;;;6.68;100.00;100460.31;5066445;28;20035;-80
2024/03/17 04:37:24;;;;;;;32.33;19.08;;;;;;;6.75;100.00;100461.19;5085082;28;20024;-81
2024/03/17 04:39:50;;;;;;;27.80;16.48;;;;;;;6.70;100.00;100495.41;5086709;28;20111;-80
2024/03/17 04:42:20;;;;;;;32.55;17.33;;;;;;;6.75;100.00;100508.09;5087218;28;20113;-80
2024/03/17 04:44:45;;;;;;;31.00;17.00;;;;;;;6.46;100.00;100504.44;5087334;28;20032;-80
2024/03/17 04:47:12;;;;;;;30.52;16.10;;;;;;;6.12;100.00;100487.19;5068933;28;20176;-80
2024/03/17 04:49:39;;;;;;;30.77;17.50;;;;;;;6.04;100.00;100480.13;5086781;28;20127;-79
2024/03/17 04:52:05;;;;;;;27.75;15.25;;;;;;;6.20;100.00;100516.25;5086982;28;20020;-80
2024/03/17 04:54:33;;;;;;;24.35;14.57;;;;;;;6.70;100.00;100516.59;5087050;28;20039;-79
2024/03/17 04:56:59;;;;;;;26.92;16.55;;;;;;;6.96;100.00;100520.59;5068760;28;20412;-80
2024/03/17 04:59:25;;;;;;;29.88;16.02;;;;;;;6.40;100.00;100527.16;5087035;28;20036;-79
2024/03/17 05:01:50;;;;;;;25.80;15.38;;;;;;;6.50;100.00;100532.22;5087095;28;20028;-80
2024/03/17 05:04:16;;;;;;;27.58;16.63;;;;;;;6.41;100.00;100514.72;5072911;28;20031;-79
2024/03/17 05:06:46;;;;;;;75.78;36.63;;;;;;;6.84;100.00;100497.22;5087031;28;20114;-79
2024/03/17 05:09:13;;;;;;;38.42;20.20;;;;;;;7.22;100.00;100525.44;5086701;28;20032;-80
2024/03/17 05:11:38;;;;;;;43.65;24.50;;;;;;;7.07;100.00;100514.84;5086592;28;20047;-80
2024/03/17 05:14:03;;;;;;;41.63;24.50;;;;;;;6.70;100.00;100500.69;5087000;28;20660;-80
2024/03/17 05:16:29;;;;;;;39.63;23.35;;;;;;;6.85;100.00;100519.25;5086942;28;20024;-79
2024/03/17 05:18:55;;;;;;;38.08;24.05;;;;;;;7.14;100.00;100517.59;5086085;28;20054;-80
2024/03/17 05:21:22;;;;;;;38.25;24.27;;;;;;;7.06;100.00;100521.16;5087109;28;20032;-80
2024/03/17 05:23:48;;;;;;;42.78;24.23;;;;;;;6.87;100.00;100496.03;5087080;28;20028;-80
2024/03/17 05:26:14;;;;;;;34.70;22.23;;;;;;;7.34;100.00;100517.81;5086921;28;20074;-79
2024/03/17 05:28:39;;;;;;;36.88;22.15;;;;;;;7.58;100.00;100537.88;5086017;28;20047;-80
2024/03/17 05:31:05;;;;;;;34.75;20.80;;;;;;;7.79;100.00;100550.38;5085990;28;20055;-80
2024/03/17 05:33:30;;;;;;;33.85;19.88;;;;;;;7.41;100.00;100518.72;5086720;28;20075;-79
2024/03/17 05:36:02;;;;;;;39.65;22.92;;;;;;;7.25;100.00;100525.03;5087275;28;20086;-80
2024/03/17 05:38:28;;;;;;;34.70;19.42;;;;;;;7.49;100.00;100537.16;5090675;28;20089;-80
2024/03/17 05:41:01;;;;;;;32.03;19.05;;;;;;;7.78;100.00;100551.38;5090284;28;20789;-79
2024/03/17 05:43:28;;;;;;;29.85;19.02;;;;;;;7.29;100.00;100525.50;5090396;28;20024;-80
2024/03/17 05:45:54;;;;;;;31.98;20.05;;;;;;;7.58;100.00;100520.13;5090725;28;20043;-80
2024/03/17 05:48:20;;;;;;;31.27;17.42;;;;;;;7.68;100.00;100556.97;5072261;28;20034;-81
2024/03/17 05:50:46;;;;;;;28.65;16.52;;;;;;;7.57;100.00;100538.91;5089986;28;20039;-80
2024/03/17 05:53:11;;;;;;;28.13;15.85;;;;;;;7.36;100.00;100521.94;5090454;28;20035;-80
2024/03/17 05:55:37;;;;;;;32.00;17.35;;;;;;;7.28;100.00;100539.78;5090603;28;20077;-80
2024/03/17 05:58:03;;;;;;;30.65;17.05;;;;;;;7.70;100.00;100565.56;5090260;28;20031;-79
2024/03/17 06:00:30;;;;;;;28.90;16.17;;;;;;;7.56;100.00;100550.50;5089731;28;20472;-80
2024/03/17 06:02:56;;;;;;;29.35;17.65;;;;;;;7.55;100.00;100567.47;5090633;28;20066;-80
2024/03/17 06:05:21;;;;;;;30.08;17.13;;;;;;;8.00;100.00;100539.72;5090419;28;20477;-80
2024/03/17 06:07:47;;;;;;;40.25;29.05;;;;;;;8.34;100.00;100564.78;5090040;28;20412;-80
2024/03/17 06:10:12;;;;;;;37.17;20.17;;;;;;;8.04;100.00;100559.59;5088080;28;20401;-80
2024/03/17 06:12:38;;;;;;;32.63;18.75;;;;;;;8.24;100.00;100575.72;5071850;28;20069;-80
2024/03/17 06:15:03;;;;;;;32.05;19.63;;;;;;;8.27;100.00;100563.88;5089819;28;20043;-79
2024/03/17 06:17:29;;;;;;;28.55;18.75;;;;;;;8.28;100.00;100525.69;5084896;28;20051;-79
2024/03/17 06:19:55;;;;;;;31.45;19.65;;;;;;;7.95;100.00;100549.31;5089148;28;20125;-79
2024/03/17 06:22:20;;;;;;;30.35;17.90;;;;;;;7.97;100.00;100566.69;5089319;28;20032;-80
2024/03/17 06:24:45;;;;;;;28.20;18.85;;;;;;;8.11;100.00;100562.34;5089547;28;20047;-80
2024/03/17 06:27:11;;;;;;;30.80;18.75;;;;;;;8.47;100.00;100564.09;5089652;28;20036;-80
2024/03/17 06:29:36;;;;;;;47.08;19.27;;;;;;;8.38;100.00;100544.78;5089003;28;21015;-80
2024/03/17 06:32:01;;;;;;;29.38;17.33;;;;;;;8.37;100.00;100569.69;5089595;28;20032;-80
2024/03/17 06:34:27;;;;;;;32.17;18.33;;;;;;;8.49;100.00;100575.34;5089550;28;20098;-80
2024/03/17 06:36:52;;;;;;;33.35;18.73;;;;;;;8.79;100.00;100570.66;5071702;28;20116;-80
2024/03/17 06:39:21;;;;;;;31.30;19.35;;;;;;;8.92;100.00;100574.41;5088311;28;20103;-79
2024/03/17 06:41:46;;;;;;;;;;;;;;;9.04;100.00;100583.50;5089321;28;20024;-80
2024/03/17 06:44:11;;;;;;;38.95;23.55;;;;;;;8.62;100.00;100554.19;5089288;28;19973;-80
2024/03/17 06:46:37;;;;;;;37.58;22.42;;;;;;;8.61;100.00;100573.78;5070475;28;20066;-80
2024/03/17 06:49:02;;;;;;;34.83;21.15;;;;;;;8.85;100.00;100577.84;5088461;28;20031;-80
2024/03/17 06:51:27;;;;;;;36.30;20.85;;;;;;;9.02;100.00;100577.53;5088387;28;20123;-80
2024/03/17 06:53:53;;;;;;;32.95;19.15;;;;;;;9.13;100.00;100562.84;5088348;28;20428;-80
2024/03/17 06:56:18;;;;;;;31.52;18.02;;;;;;;8.96;100.00;100581.00;5088804;28;20042;-80
2024/03/17 06:58:44;;;;;;;34.58;20.95;;;;;;;9.03;100.00;100549.91;5088797;28;20097;-80
2024/03/17 07:01:09;;;;;;;33.65;19.77;;;;;;;9.24;100.00;100581.75;5088995;28;20036;-79
2024/03/17 07:03:35;;;;;;;33.95;20.02;;;;;;;9.28;100.00;100570.72;5089306;28;20067;-80
2024/03/17 07:06:05;;;;;;;36.42;20.65;;;;;;;9.42;100.00;100591.06;5089286;28;20133;-80
2024/03/17 07:08:31;;;;;;;29.23;18.08;;;;;;;9.31;100.00;100568.47;5088720;28;20064;-80
2024/03/17 07:11:02;;;;;;;31.00;18.13;;;;;;;9.25;100.00;100562.13;5088536;28;20111;-80
2024/03/17 07:13:30;;;;;;;27.77;17.38;;;;;;;9.32;100.00;100593.28;5085772;28;20572;-80
2024/03/17 07:15:55;;;;;;;34.85;19.08;;;;;;;9.10;100.00;100588.03;5088298;28;20024;-80
2024/03/17 07:18:20;;;;;;;28.90;18.65;;;;;;;9.17;100.00;100594.19;5087703;28;20633;-80
2024/03/17 07:20:47;;;;;;;29.08;18.17;;;;;;;9.07;100.00;100556.47;5088079;28;20028;-78
2024/03/17 07:23:14;;;;;;;37.65;19.25;;;;;;;9.97;100.00;100580.34;5088515;28;20057;-80
2024/03/17 07:25:40;;;;;;;31.00;17.63;;;;;;;10.80;100.00;100598.69;5088051;28;20607;-79
2024/03/17 07:28:05;;;;;;;31.42;18.30;;;;;;;10.83;100.00;100567.06;5087474;28;20027;-79
2024/03/17 07:30:30;;;;;;;30.17;17.92;;;;;;;10.93;100.00;100603.16;5084242;28;20021;-78
2024/03/17 07:32:56;;;;;;;28.17;17.08;;;;;;;11.06;100.00;100603.16;5086272;28;20031;-80
2024/03/17 07:35:21;;;;;;;27.45;17.42;;;;;;;11.27;100.00;100572.69;5088501;28;20028;-79
2024/03/17 07:37:47;;;;;;;29.42;16.90;;;;;;;11.42;100.00;100564.41;5088306;28;20024;-79
2024/03/17 07:40:12;;;;;;;30.83;18.08;;;;;;;10.27;100.00;100600.28;5084161;28;20111;-80
2024/03/17 07:42:37;;;;;;;27.42;16.00;;;;;;;9.92;100.00;100607.59;5082687;28;20428;-79
2024/03/17 07:45:04;;;;;;;31.70;19.10;;;;;;;10.81;100.00;100598.47;5070148;28;20030;-79
2024/03/17 07:47:35;;;;;;;28.58;17.60;;;;;;;11.57;100.00;100583.69;5069924;28;20035;-79
2024/03/17 07:50:08;;;;;;;28.25;16.77;;;;;;;11.75;100.00;100592.81;5087828;28;20103;-79
2024/03/17 07:52:33;;;;;;;29.65;19.67;;;;;;;11.58;100.00;100601.31;5085088;28;20063;-79
2024/03/17 07:54:58;;;;;;;28.80;18.05;;;;;;;11.11;100.00;100610.53;5087830;28;20126;-79
2024/03/17 07:57:24;;;;;;;29.17;18.67;;;;;;;11.54;100.00;100604.63;5086828;28;20111;-79
2024/03/17 07:59:51;;;;;;;31.70;19.10;;;;;;;11.49;100.00;100586.59;5087776;28;20039;-79
2024/03/17 08:02:17;;;;;;;30.83;19.52;;;;;;;11.73;100.00;100598.41;5069453;28;20477;-79
2024/03/17 08:04:44;;;;;;;30.95;19.55;;;;;;;11.88;100.00;100590.09;5088380;28;20016;-79
2024/03/17 08:07:10;;;;;;;33.30;19.88;;;;;;;11.90;100.00;100601.41;5087518;28;20778;-79
2024/03/17 08:09:35;;;;;;;44.05;26.02;;;;;;;11.52;100.00;100586.16;5069617;28;20031;-78
2024/03/17 08:12:02;;;;;;;34.50;20.45;;;;;;;11.36;100.00;100589.28;5084058;28;20031;-79
2024/03/17 08:14:27;;;;;;;48.95;40.95;;;;;;;11.33;100.00;100568.38;5080589;28;20033;-79
2024/03/17 08:16:53;;;;;;;32.30;20.13;;;;;;;11.12;100.00;100604.19;5087760;28;20382;-79
2024/03/17 08:19:18;;;;;;;34.72;20.90;;;;;;;10.96;100.00;100592.09;5080927;28;20107;-80
2024/03/17 08:21:45;;;;;;;34.92;20.25;;;;;;;10.98;100.00;100574.84;5087493;28;20039;-80
2024/03/17 08:24:10;;;;;;;34.50;21.20;;;;;;;10.66;100.00;100587.19;5087450;28;20486;-79
2024/03/17 08:26:36;;;;;;;33.75;20.85;;;;;;;10.93;100.00;100555.97;5069400;28;20048;-79
2024/03/17 08:29:01;;;;;;;34.22;21.40;;;;;;;10.92;100.00;100564.19;5080027;28;20108;-80
2024/03/17 08:31:26;;;;;;;35.78;22.25;;;;;;;10.92;100.00;100588.19;5078841;28;20031;-79
2024/03/17 08:33:52;;;;;;;38.10;22.00;;;;;;;10.81;100.00;100558.47;5077953;28;20396;-79
2024/03/17 08:36:19;;;;;;;37.97;24.42;;;;;;;11.35;100.00;100574.31;5080983;28;20063;-79
2024/03/17 08:38:45;;;;;;;33.67;20.67;;;;;;;10.81;100.00;100555.78;5078376;28;20032;-79
2024/03/17 08:41:10;;;;;;;32.75;19.95;;;;;;;11.18;100.00;100568.63;5087160;28;20396;-80
2024/03/17 08:43:37;;;;;;;32.28;20.42;;;;;;;11.30;100.00;100576.78;5069249;28;20036;-79
2024/03/17 08:46:07;;;;;;;33.72;20.67;;;;;;;10.98;100.00;100574.03;5087397;28;20035;-80
2024/03/17 08:48:35;;;;;;;33.65;20.33;;;;;;;10.90;100.00;100560.91;5083785;28;20551;-79
2024/03/17 08:51:02;;;;;;;34.53;21.13;;;;;;;11.20;100.00;100578.06;5086479;28;20404;-79
2024/03/17 08:53:28;;;;;;;31.85;20.17;;;;;;;11.27;100.00;100560.16;5068860;28;20632;-79
2024/03/17 08:55:54;;;;;;;32.13;19.90;;;;;;;11.27;98.95;100527.31;5086961;28;20500;-80
2024/03/17 08:58:21;;;;;;;31.83;18.95;;;;;;;11.81;97.30;100560.75;5087224;28;20043;-80
2024/03/17 09:00:47;;;;;;;28.52;17.27;;;;;;;11.77;98.73;100572.06;5086776;28;20549;-79
2024/03/17 09:03:13;;;;;;;33.45;20.40;;;;;;;11.59;100.00;100560.25;5086610;28;20024;-79
2024/03/17 09:05:39;;;;;;;30.95;19.55;;;;;;;12.27;93.25;100556.13;5086920;28;20035;-79
2024/03/17 09:08:14;;;;;;;41.22;26.70;;;;;;;12.51;94.32;100541.13;5086633;28;20020;-80
2024/03/17 09:10:40;;;;;;;41.60;28.70;;;;;;;13.20;89.38;100568.63;5086745;28;20042;-79
2024/03/17 09:13:06;;;;;;;30.35;18.65;;;;;;;12.95;83.54;100541.09;5086785;28;20024;-79
2024/03/17 09:15:31;;;;;;;35.85;18.90;;;;;;;12.48;91.06;100567.47;5087103;28;20455;-79
2024/03/17 09:17:56;;;;;;;30.50;19.65;;;;;;;12.34;90.97;100540.03;5086734;28;20028;-79
2024/03/17 09:20:22;;;;;;;28.33;17.83;;;;;;;13.11;85.00;100547.72;5086598;28;20032;-79
2024/03/17 09:22:47;;;;;;;27.65;16.75;;;;;;;12.89;84.99;100536.63;5068394;28;20440;-79
2024/03/17 09:25:14;;;;;;;26.38;17.50;;;;;;;12.60;88.19;100560.38;5086919;28;20085;-79
2024/03/17 09:27:40;;;;;;;30.73;18.52;;;;;;;13.05;88.44;100544.06;5086842;28;20070;-79
2024/03/17 09:30:09;;;;;;;64.22;46.95;;;;;;;13.73;84.86;100521.59;5086555;28;20067;-79
2024/03/17 09:32:36;;;;;;;30.73;20.10;;;;;;;14.37;77.73;100521.00;5055879;28;20428;-80
2024/03/17 09:35:01;;;;;;;31.40;17.30;;;;;;;14.75;76.93;100534.00;5086105;28;20424;-80
2024/03/17 09:37:30;;;;;;;27.73;17.52;;;;;;;14.47;72.57;100532.78;5086739;28;20488;-79
2024/03/17 09:39:57;;;;;;;23.58;14.43;;;;;;;15.31;69.97;100549.66;5086319;28;20032;-79
2024/03/17 09:42:23;;;;;;;26.20;15.40;;;;;;;16.21;70.26;100551.56;5086345;28;20028;-80
2024/03/17 09:44:52;;;;;;;23.42;14.65;;;;;;;15.19;66.27;100544.31;5086113;28;20078;-79
2024/03/17 09:47:21;;;;;;;24.52;15.93;;;;;;;13.94;75.57;100522.94;5086356;28;20035;-80
2024/03/17 09:49:48;;;;;;;24.08;15.98;;;;;;;13.84;79.92;100503.91;5086304;28;20028;-79
2024/03/17 09:52:21;;;;;;;24.67;14.93;;;;;;;13.98;76.51;100515.25;5086340;28;20040;-79
2024/03/17 09:54:47;;;;;;;26.40;16.90;;;;;;;14.14;80.04;100524.47;5086106;28;20039;-79
2024/03/17 09:57:17;;;;;;;25.65;16.33;;;;;;;14.82;76.30;100525.81;5086545;28;20075;-80
2024/03/17 09:59:43;;;;;;;29.02;16.67;;;;;;;14.18;78.01;100517.59;5085771;28;20071;-79
2024/03/17 10:02:18;;;;;;;25.75;15.45;;;;;;;14.65;75.38;100509.59;5086225;28;20087;-79
2024/03/17 10:04:44;;;;;;;25.50;16.20;;;;;;;15.58;73.36;100504.19;5086465;28;20061;-79
2024/03/17 10:07:09;;;;;;;30.48;21.27;;;;;;;16.27;68.02;100520.19;5086960;28;20031;-79
2024/03/17 10:09:36;;;;;;;29.33;20.60;;;;;;;16.39;65.25;100509.34;5086022;28;20039;-79
2024/03/17 10:12:01;;;;;;;26.88;20.10;;;;;;;16.10;66.05;100495.13;5067526;28;20032;-79
2024/03/17 10:14:27;;;;;;;24.85;17.20;;;;;;;15.72;67.98;100489.44;5086091;28;20028;-79
2024/03/17 10:16:52;;;;;;;21.75;15.48;;;;;;;16.18;68.35;100492.03;5068009;28;20032;-79
2024/03/17 10:19:25;;;;;;;30.73;19.15;;;;;;;16.70;71.77;100483.66;5086020;28;20111;-80
2024/03/17 10:21:58;;;;;;;33.20;21.25;;;;;;;16.63;68.45;100509.94;5088570;28;20035;-79
2024/03/17 10:24:25;;;;;;;30.52;20.70;;;;;;;16.54;67.94;100469.16;5071607;28;20038;-78
2024/03/17 10:26:51;;;;;;;27.33;17.83;;;;;;;16.15;67.93;100500.63;5089624;28;20561;-79
2024/03/17 10:29:27;;;;;;;20.85;13.88;;;;;;;16.32;68.47;100501.41;5088530;28;20135;-79
2024/03/17 10:32:04;;;;;;;21.45;14.32;;;;;;;17.24;66.91;100494.59;5088276;28;20531;-79
2024/03/17 10:34:37;;;;;;;19.45;13.73;;;;;;;17.07;61.58;100472.28;5089283;28;20024;-79
2024/03/17 10:37:10;;;;;;;22.45;13.93;;;;;;;17.53;60.94;100497.03;5089851;28;20455;-80
2024/03/17 10:39:37;;;;;;;20.27;13.60;;;;;;;17.58;61.45;100478.19;5090820;28;20028;-80
2024/03/17 10:42:04;;;;;;;19.83;13.80;;;;;;;18.23;57.58;100495.22;5083269;28;20110;-79
2024/03/17 10:44:37;;;;;;;17.48;12.32;;;;;;;17.78;61.27;100482.16;5090575;28;20034;-79
2024/03/17 10:47:09;;;;;;;24.40;13.15;;;;;;;18.53;56.71;100480.31;5090213;28;20513;-80
2024/03/17 10:49:36;;;;;;;19.10;13.18;;;;;;;18.20;56.54;100465.25;5090637;28;20527;-79
2024/03/17 10:52:06;;;;;;;19.23;13.45;;;;;;;18.81;54.34;100489.13;5089256;28;20085;-79
2024/03/17 10:54:33;;;;;;;15.00;11.05;;;;;;;18.61;53.90;100495.19;5090479;28;20032;-80
2024/03/17 10:57:14;;;;;;;16.95;11.35;;;;;;;17.74;56.66;100460.28;5090182;28;20024;-80
2024/03/17 10:59:45;;;;;;;17.48;12.63;;;;;;;17.38;60.37;100449.16;5090350;28;20028;-80
2024/03/17 11:02:24;;;;;;;31.70;24.30;;;;;;;18.71;55.78;100473.63;5089778;28;20047;-80
2024/03/17 11:04:52;;;;;;;16.20;10.07;;;;;;;18.18;52.79;100457.38;5089787;28;20034;-80
2024/03/17 11:07:19;;;;;;;13.43;9.57;;;;;;;18.80;52.88;100461.28;5089913;28;20100;-80